createdAt,value
2018-08-14T00:00:58.381Z,0.00
2018-08-14T00:01:58.531Z,0.00
2018-08-14T00:02:58.685Z,0.00
2018-08-14T00:03:58.837Z,0.00
2018-08-14T00:04:59.003Z,0.00
2018-08-14T00:05:59.147Z,0.00
2018-08-14T00:06:59.304Z,0.00
2018-08-14T00:07:59.455Z,0.00
2018-08-14T00:08:59.607Z,0.00
2018-08-14T00:09:59.760Z,0.00
2018-08-14T00:10:59.911Z,0.00
2018-08-14T00:12:00.064Z,0.00
2018-08-14T00:13:00.217Z,0.00
2018-08-14T00:14:00.368Z,0.00
2018-08-14T00:15:00.523Z,0.00
2018-08-14T00:16:00.672Z,0.00
2018-08-14T00:17:00.824Z,0.00
2018-08-14T00:18:00.977Z,0.00
2018-08-14T00:19:01.131Z,0.00
2018-08-14T00:20:01.283Z,0.00
2018-08-14T00:21:01.435Z,0.00
2018-08-14T00:22:01.584Z,0.00
2018-08-14T00:23:01.738Z,0.00
2018-08-14T00:24:01.890Z,0.00
2018-08-14T00:25:02.042Z,0.00
2018-08-14T00:26:02.192Z,0.00
2018-08-14T00:27:02.345Z,0.00
2018-08-14T00:28:02.499Z,0.00
2018-08-14T00:29:02.651Z,0.00
2018-08-14T00:30:02.806Z,0.00
2018-08-14T00:31:02.967Z,0.00
2018-08-14T00:32:03.112Z,0.00
2018-08-14T00:33:03.261Z,0.00
2018-08-14T00:34:03.414Z,0.00
2018-08-14T00:35:03.563Z,0.00
2018-08-14T00:36:03.714Z,0.00
2018-08-14T00:37:03.864Z,0.00
2018-08-14T00:38:04.017Z,0.00
2018-08-14T00:39:04.165Z,0.00
2018-08-14T00:40:04.318Z,0.00
2018-08-14T00:41:04.468Z,0.00
2018-08-14T00:42:04.619Z,0.00
2018-08-14T00:43:04.771Z,0.00
2018-08-14T00:44:04.923Z,0.00
2018-08-14T00:45:05.075Z,0.00
2018-08-14T00:46:05.226Z,0.00
2018-08-14T00:47:05.378Z,0.00
2018-08-14T00:48:05.531Z,0.00
2018-08-14T00:49:05.684Z,0.00
2018-08-14T00:50:05.836Z,0.00
2018-08-14T00:51:05.989Z,0.00
2018-08-14T00:52:06.140Z,0.00
2018-08-14T00:53:06.291Z,0.00
2018-08-14T00:54:06.449Z,0.00
2018-08-14T00:55:06.596Z,0.00
2018-08-14T00:56:06.748Z,0.00
2018-08-14T00:57:06.903Z,0.00
2018-08-14T00:58:07.049Z,0.00
2018-08-14T00:59:07.201Z,0.00
2018-08-14T01:00:07.354Z,0.00
2018-08-14T01:01:07.505Z,0.00
2018-08-14T01:02:07.658Z,0.00
2018-08-14T01:03:07.808Z,0.00
2018-08-14T01:04:07.961Z,0.00
2018-08-14T01:05:08.111Z,0.00
2018-08-14T01:06:08.272Z,0.00
2018-08-14T01:07:08.415Z,0.00
2018-08-14T01:08:08.571Z,0.00
2018-08-14T01:09:08.721Z,0.00
2018-08-14T01:10:08.870Z,0.00
2018-08-14T01:11:09.024Z,0.00
2018-08-14T01:12:09.174Z,0.00
2018-08-14T01:13:09.325Z,0.00
2018-08-14T01:14:09.478Z,0.00
2018-08-14T01:15:09.630Z,0.00
2018-08-14T01:16:09.781Z,0.00
2018-08-14T01:17:09.934Z,0.00
2018-08-14T01:18:10.085Z,0.00
2018-08-14T01:19:10.238Z,0.00
2018-08-14T01:20:10.392Z,0.00
2018-08-14T01:21:10.544Z,0.00
2018-08-14T01:22:10.691Z,0.00
2018-08-14T01:23:10.848Z,0.00
2018-08-14T01:24:10.993Z,0.00
2018-08-14T01:25:11.147Z,0.00
2018-08-14T01:26:11.301Z,0.00
2018-08-14T01:27:11.451Z,0.00
2018-08-14T01:28:11.607Z,0.00
2018-08-14T01:29:11.759Z,0.00
2018-08-14T01:30:11.909Z,0.00
2018-08-14T01:31:12.062Z,0.00
2018-08-14T01:32:12.214Z,0.00
2018-08-14T01:33:12.367Z,0.00
2018-08-14T01:34:12.519Z,0.00
2018-08-14T01:35:12.667Z,0.00
2018-08-14T01:36:12.817Z,0.00
2018-08-14T01:37:12.973Z,0.00
2018-08-14T01:38:13.124Z,0.00
2018-08-14T01:39:13.277Z,0.00
2018-08-14T01:40:13.428Z,0.00
2018-08-14T01:41:13.586Z,0.00
2018-08-14T01:42:13.730Z,0.00
2018-08-14T01:43:13.884Z,0.00
2018-08-14T01:44:14.036Z,0.00
2018-08-14T01:45:14.188Z,0.00
2018-08-14T01:46:14.341Z,0.00
2018-08-14T01:47:14.500Z,0.00
2018-08-14T01:48:14.655Z,0.00
2018-08-14T01:49:14.842Z,0.00
2018-08-14T01:50:14.955Z,0.00
2018-08-14T01:51:15.103Z,0.00
2018-08-14T01:52:15.255Z,0.00
2018-08-14T01:53:15.407Z,0.00
2018-08-14T01:54:15.561Z,0.00
2018-08-14T01:55:15.712Z,0.00
2018-08-14T01:56:15.863Z,0.00
2018-08-14T01:57:16.021Z,0.00
2018-08-14T01:58:16.169Z,0.00
2018-08-14T01:59:16.325Z,0.00
2018-08-14T02:00:16.473Z,0.00
2018-08-14T02:01:16.625Z,0.00
2018-08-14T02:02:16.781Z,0.00
2018-08-14T02:03:16.929Z,0.00
2018-08-14T02:04:17.082Z,0.00
2018-08-14T02:05:17.229Z,0.00
2018-08-14T02:06:17.384Z,0.00
2018-08-14T02:07:17.538Z,0.00
2018-08-14T02:08:17.692Z,0.00
2018-08-14T02:09:17.842Z,0.00
2018-08-14T02:10:17.998Z,0.00
2018-08-14T02:11:18.147Z,0.00
2018-08-14T02:12:18.300Z,0.00
2018-08-14T02:13:18.449Z,0.00
2018-08-14T02:14:18.599Z,0.00
2018-08-14T02:15:18.754Z,0.00
2018-08-14T02:16:18.907Z,0.00
2018-08-14T02:17:19.062Z,0.00
2018-08-14T02:18:19.218Z,0.00
2018-08-14T02:19:19.367Z,0.00
2018-08-14T02:20:19.519Z,0.00
2018-08-14T02:21:19.673Z,0.00
2018-08-14T02:22:19.824Z,0.00
2018-08-14T02:23:19.976Z,0.00
2018-08-14T02:24:20.126Z,0.00
2018-08-14T02:25:20.278Z,0.00
2018-08-14T02:26:20.458Z,0.00
2018-08-14T02:27:20.578Z,0.00
2018-08-14T02:28:20.733Z,0.00
2018-08-14T02:29:20.884Z,0.00
2018-08-14T02:30:21.038Z,0.00
2018-08-14T02:31:21.190Z,0.00
2018-08-14T02:32:21.346Z,0.00
2018-08-14T02:33:21.494Z,0.00
2018-08-14T02:34:21.648Z,0.00
2018-08-14T02:35:21.801Z,0.00
2018-08-14T02:36:21.957Z,0.00
2018-08-14T02:37:22.105Z,0.00
2018-08-14T02:38:22.258Z,0.00
2018-08-14T02:39:22.411Z,0.00
2018-08-14T02:40:22.561Z,0.00
2018-08-14T02:41:22.716Z,0.00
2018-08-14T02:42:22.864Z,0.00
2018-08-14T02:43:23.019Z,0.00
2018-08-14T02:44:23.171Z,0.00
2018-08-14T02:45:23.325Z,0.00
2018-08-14T02:46:23.476Z,0.00
2018-08-14T02:47:23.631Z,0.00
2018-08-14T02:48:23.782Z,0.00
2018-08-14T02:49:23.934Z,0.00
2018-08-14T02:50:24.084Z,0.00
2018-08-14T02:51:24.238Z,0.00
2018-08-14T02:52:24.392Z,0.00
2018-08-14T02:53:24.543Z,0.00
2018-08-14T02:54:24.699Z,0.00
2018-08-14T02:55:24.850Z,0.00
2018-08-14T02:56:25.000Z,0.00
2018-08-14T02:57:25.151Z,0.00
2018-08-14T02:58:25.302Z,0.00
2018-08-14T02:59:25.457Z,0.00
2018-08-14T03:00:25.605Z,0.00
2018-08-14T03:01:25.757Z,0.00
2018-08-14T03:02:25.912Z,0.00
2018-08-14T03:03:26.063Z,0.00
2018-08-14T03:04:26.215Z,0.00
2018-08-14T03:05:26.370Z,0.00
2018-08-14T03:06:26.522Z,0.00
2018-08-14T03:07:26.675Z,0.00
2018-08-14T03:08:26.831Z,0.00
2018-08-14T03:09:26.981Z,0.00
2018-08-14T03:10:27.141Z,0.00
2018-08-14T03:11:27.288Z,0.00
2018-08-14T03:12:27.443Z,0.00
2018-08-14T03:13:27.592Z,0.00
2018-08-14T03:14:27.746Z,0.00
2018-08-14T03:15:27.901Z,0.00
2018-08-14T03:16:28.053Z,0.00
2018-08-14T03:17:28.203Z,0.00
2018-08-14T03:18:28.354Z,0.00
2018-08-14T03:19:28.549Z,0.00
2018-08-14T03:20:28.662Z,0.00
2018-08-14T03:21:28.819Z,0.00
2018-08-14T03:22:28.964Z,0.00
2018-08-14T03:23:29.117Z,0.00
2018-08-14T03:24:29.272Z,0.00
2018-08-14T03:25:29.422Z,0.00
2018-08-14T03:26:29.590Z,0.00
2018-08-14T03:27:29.726Z,0.00
2018-08-14T03:28:29.878Z,0.00
2018-08-14T03:29:30.030Z,0.00
2018-08-14T03:30:30.187Z,0.00
2018-08-14T03:31:30.335Z,0.00
2018-08-14T03:32:30.488Z,0.00
2018-08-14T03:33:30.641Z,0.00
2018-08-14T03:34:30.798Z,0.00
2018-08-14T03:35:30.950Z,0.00
2018-08-14T03:36:31.104Z,4.00
2018-08-14T03:37:31.261Z,4.00
2018-08-14T03:38:31.410Z,4.00
2018-08-14T03:39:31.564Z,4.00
2018-08-14T03:40:31.718Z,0.00
2018-08-14T03:41:31.869Z,0.00
2018-08-14T03:42:32.026Z,0.00
2018-08-14T03:43:32.176Z,4.00
2018-08-14T03:44:32.330Z,4.00
2018-08-14T03:45:32.486Z,8.00
2018-08-14T03:46:32.636Z,4.00
2018-08-14T03:47:32.786Z,8.00
2018-08-14T03:48:32.940Z,12.00
2018-08-14T03:49:33.094Z,16.00
2018-08-14T03:50:33.244Z,20.00
2018-08-14T03:51:33.399Z,24.00
2018-08-14T03:52:33.552Z,24.00
2018-08-14T03:53:33.704Z,24.00
2018-08-14T03:54:33.859Z,28.00
2018-08-14T03:55:34.011Z,36.00
2018-08-14T03:56:34.166Z,40.00
2018-08-14T03:57:34.319Z,40.00
2018-08-14T03:58:34.473Z,48.00
2018-08-14T03:59:34.626Z,60.00
2018-08-14T04:00:34.790Z,72.00
2018-08-14T04:01:34.942Z,88.00
2018-08-14T04:02:35.093Z,104.00
2018-08-14T04:03:35.252Z,116.00
2018-08-14T04:04:35.404Z,120.00
2018-08-14T04:05:35.558Z,128.00
2018-08-14T04:06:35.712Z,128.00
2018-08-14T04:07:35.866Z,144.00
2018-08-14T04:08:36.018Z,152.00
2018-08-14T04:09:36.171Z,160.00
2018-08-14T04:10:36.328Z,184.00
2018-08-14T04:11:36.480Z,224.00
2018-08-14T04:12:36.637Z,256.00
2018-08-14T04:13:36.787Z,260.00
2018-08-14T04:14:36.940Z,288.00
2018-08-14T04:15:37.094Z,304.00
2018-08-14T04:16:37.246Z,272.00
2018-08-14T04:17:37.397Z,236.00
2018-08-14T04:18:37.548Z,216.00
2018-08-14T04:19:37.706Z,228.00
2018-08-14T04:20:37.857Z,228.00
2018-08-14T04:21:38.010Z,212.00
2018-08-14T04:22:38.161Z,224.00
2018-08-14T04:23:38.312Z,236.00
2018-08-14T04:24:38.464Z,256.00
2018-08-14T04:25:38.619Z,280.00
2018-08-14T04:26:38.828Z,320.00
2018-08-14T04:27:38.921Z,380.00
2018-08-14T04:28:39.069Z,464.00
2018-08-14T04:29:39.225Z,500.00
2018-08-14T04:30:39.375Z,484.00
2018-08-14T04:31:39.529Z,480.00
2018-08-14T04:32:39.682Z,516.00
2018-08-14T04:33:39.834Z,544.00
2018-08-14T04:34:39.987Z,544.00
2018-08-14T04:35:40.140Z,500.00
2018-08-14T04:36:40.294Z,484.00
2018-08-14T04:37:40.448Z,496.00
2018-08-14T04:38:40.601Z,520.00
2018-08-14T04:39:40.753Z,540.00
2018-08-14T04:40:41.083Z,556.00
2018-08-14T04:41:41.065Z,548.00
2018-08-14T04:42:41.194Z,508.00
2018-08-14T04:43:41.462Z,452.00
2018-08-14T04:44:41.523Z,456.00
2018-08-14T04:45:41.685Z,508.00
2018-08-14T04:46:41.825Z,528.00
2018-08-14T04:47:41.978Z,572.00
2018-08-14T04:48:42.125Z,696.00
2018-08-14T04:49:42.281Z,772.00
2018-08-14T04:50:42.433Z,824.00
2018-08-14T04:51:42.585Z,972.00
2018-08-14T04:52:42.739Z,1020.00
2018-08-14T04:53:42.893Z,828.00
2018-08-14T04:54:43.047Z,756.00
2018-08-14T04:55:43.208Z,748.00
2018-08-14T04:56:43.355Z,792.00
2018-08-14T04:57:43.510Z,828.00
2018-08-14T04:58:43.662Z,780.00
2018-08-14T04:59:43.837Z,804.00
2018-08-14T05:00:43.979Z,860.00
2018-08-14T05:01:44.109Z,932.00
2018-08-14T05:02:44.263Z,1004.00
2018-08-14T05:03:44.418Z,1104.00
2018-08-14T05:04:44.571Z,1040.00
2018-08-14T05:05:44.728Z,948.00
2018-08-14T05:06:44.884Z,964.00
2018-08-14T05:07:45.048Z,900.00
2018-08-14T05:08:45.195Z,904.00
2018-08-14T05:09:45.437Z,928.00
2018-08-14T05:10:45.483Z,1024.00
2018-08-14T05:11:45.634Z,1228.00
2018-08-14T05:12:45.790Z,1272.00
2018-08-14T05:13:45.950Z,1028.00
2018-08-14T05:14:46.104Z,1052.00
2018-08-14T05:15:46.253Z,1168.00
2018-08-14T05:16:46.408Z,1312.00
2018-08-14T05:17:46.578Z,1504.00
2018-08-14T05:18:46.714Z,1596.00
2018-08-14T05:19:46.870Z,1820.00
2018-08-14T05:20:47.021Z,2284.00
2018-08-14T05:21:47.176Z,2572.00
2018-08-14T05:22:47.328Z,2716.00
2018-08-14T05:23:47.481Z,2876.00
2018-08-14T05:24:47.635Z,2896.00
2018-08-14T05:25:47.792Z,2708.00
2018-08-14T05:26:47.951Z,2744.00
2018-08-14T05:27:48.093Z,2940.00
2018-08-14T05:28:48.248Z,3052.00
2018-08-14T05:29:48.398Z,2760.00
2018-08-14T05:30:48.554Z,2792.00
2018-08-14T05:31:48.704Z,2816.00
2018-08-14T05:32:48.857Z,2828.00
2018-08-14T05:33:49.035Z,2924.00
2018-08-14T05:34:49.161Z,3040.00
2018-08-14T05:35:49.312Z,3084.00
2018-08-14T05:36:49.465Z,3120.00
2018-08-14T05:37:49.618Z,3216.00
2018-08-14T05:38:49.771Z,3316.00
2018-08-14T05:39:49.928Z,3412.00
2018-08-14T05:40:50.087Z,3476.00
2018-08-14T05:41:50.235Z,3504.00
2018-08-14T05:42:50.394Z,3524.00
2018-08-14T05:43:50.537Z,3584.00
2018-08-14T05:44:50.702Z,3576.00
2018-08-14T05:45:50.851Z,3524.00
2018-08-14T05:46:51.002Z,3524.00
2018-08-14T05:47:51.154Z,3456.00
2018-08-14T05:48:51.308Z,3520.00
2018-08-14T05:49:51.463Z,3576.00
2018-08-14T05:50:51.615Z,3564.00
2018-08-14T05:51:51.770Z,3620.00
2018-08-14T05:52:51.963Z,3712.00
2018-08-14T05:53:52.080Z,3852.00
2018-08-14T05:54:52.233Z,3932.00
2018-08-14T05:55:52.386Z,3864.00
2018-08-14T05:56:52.541Z,3836.00
2018-08-14T05:57:52.695Z,3812.00
2018-08-14T05:58:52.851Z,3808.00
2018-08-14T05:59:53.003Z,3960.00
2018-08-14T06:00:53.154Z,4332.00
2018-08-14T06:01:53.358Z,4828.00
2018-08-14T06:02:53.461Z,5184.00
2018-08-14T06:03:53.616Z,5108.00
2018-08-14T06:04:53.769Z,4960.00
2018-08-14T06:05:53.923Z,4892.00
2018-08-14T06:06:54.078Z,4848.00
2018-08-14T06:07:54.229Z,4924.00
2018-08-14T06:08:54.385Z,5056.00
2018-08-14T06:09:54.537Z,5000.00
2018-08-14T06:10:54.695Z,4700.00
2018-08-14T06:11:54.846Z,4248.00
2018-08-14T06:12:55.001Z,3840.00
2018-08-14T06:13:55.154Z,3716.00
2018-08-14T06:14:55.306Z,4032.00
2018-08-14T06:15:55.462Z,4420.00
2018-08-14T06:16:55.657Z,4280.00
2018-08-14T06:17:55.769Z,4520.00
2018-08-14T06:18:55.922Z,5064.00
2018-08-14T06:19:56.076Z,5640.00
2018-08-14T06:20:56.229Z,5936.00
2018-08-14T06:21:56.382Z,5784.00
2018-08-14T06:22:56.537Z,5408.00
2018-08-14T06:23:56.693Z,4864.00
2018-08-14T06:24:56.845Z,4428.00
2018-08-14T06:25:56.998Z,4312.00
2018-08-14T06:26:57.156Z,4448.00
2018-08-14T06:27:57.312Z,4452.00
2018-08-14T06:28:57.468Z,4872.00
2018-08-14T06:29:57.622Z,5460.00
2018-08-14T06:30:57.776Z,5876.00
2018-08-14T06:31:57.923Z,5948.00
2018-08-14T06:32:58.076Z,6080.00
2018-08-14T06:33:58.228Z,5904.00
2018-08-14T06:34:58.383Z,5784.00
2018-08-14T06:35:58.540Z,5516.00
2018-08-14T06:36:58.693Z,4960.00
2018-08-14T06:37:58.847Z,4412.00
2018-08-14T06:38:59.012Z,4156.00
2018-08-14T06:39:59.157Z,4044.00
2018-08-14T06:40:59.314Z,4588.00
2018-08-14T06:41:59.469Z,5632.00
2018-08-14T06:42:59.622Z,6268.00
2018-08-14T06:43:59.779Z,6116.00
2018-08-14T06:44:59.941Z,6092.00
2018-08-14T06:46:00.091Z,6860.00
2018-08-14T06:47:00.244Z,8228.00
2018-08-14T06:48:00.400Z,7972.00
2018-08-14T06:49:00.555Z,7072.00
2018-08-14T06:50:00.710Z,7620.00
2018-08-14T06:51:00.864Z,8976.00
2018-08-14T06:52:01.020Z,10920.00
2018-08-14T06:53:01.172Z,10304.00
2018-08-14T06:54:01.328Z,9932.00
2018-08-14T06:55:01.482Z,9232.00
2018-08-14T06:56:01.637Z,8488.00
2018-08-14T06:57:01.793Z,7860.00
2018-08-14T06:58:01.949Z,6948.00
2018-08-14T06:59:02.103Z,6340.00
2018-08-14T07:00:02.262Z,6516.00
2018-08-14T07:01:02.418Z,6788.00
2018-08-14T07:02:02.577Z,7772.00
2018-08-14T07:03:02.729Z,9904.00
2018-08-14T07:04:02.882Z,10224.00
2018-08-14T07:05:03.037Z,9368.00
2018-08-14T07:06:03.190Z,7672.00
2018-08-14T07:07:03.351Z,8148.00
2018-08-14T07:08:03.506Z,8900.00
2018-08-14T07:09:03.657Z,8636.00
2018-08-14T07:10:03.816Z,8436.00
2018-08-14T07:11:03.969Z,6524.00
2018-08-14T07:12:04.129Z,6164.00
2018-08-14T07:13:04.278Z,7216.00
2018-08-14T07:14:04.434Z,6316.00
2018-08-14T07:15:04.594Z,7152.00
2018-08-14T07:16:04.745Z,8216.00
2018-08-14T07:17:04.900Z,6712.00
2018-08-14T07:18:05.058Z,7892.00
2018-08-14T07:19:05.208Z,8028.00
2018-08-14T07:20:05.366Z,6252.00
2018-08-14T07:21:05.523Z,5188.00
2018-08-14T07:22:05.678Z,5000.00
2018-08-14T07:23:05.835Z,5072.00
2018-08-14T07:24:05.987Z,5116.00
2018-08-14T07:25:06.142Z,5844.00
2018-08-14T07:26:06.303Z,6876.00
2018-08-14T07:27:06.453Z,8136.00
2018-08-14T07:28:06.608Z,10048.00
2018-08-14T07:29:06.763Z,9304.00
2018-08-14T07:30:06.920Z,7312.00
2018-08-14T07:31:07.078Z,8796.00
2018-08-14T07:32:07.230Z,9084.00
2018-08-14T07:33:07.384Z,9780.00
2018-08-14T07:34:07.540Z,9040.00
2018-08-14T07:35:07.694Z,9204.00
2018-08-14T07:36:07.853Z,9424.00
2018-08-14T07:37:08.005Z,8000.00
2018-08-14T07:38:08.160Z,6884.00
2018-08-14T07:39:08.315Z,6476.00
2018-08-14T07:40:08.469Z,7016.00
2018-08-14T07:41:08.623Z,7872.00
2018-08-14T07:42:08.780Z,9300.00
2018-08-14T07:43:08.938Z,6888.00
2018-08-14T07:44:09.091Z,4188.00
2018-08-14T07:45:09.251Z,4408.00
2018-08-14T07:46:09.403Z,5152.00
2018-08-14T07:47:09.561Z,6512.00
2018-08-14T07:48:09.715Z,7032.00
2018-08-14T07:49:09.870Z,7572.00
2018-08-14T07:50:10.083Z,9528.00
2018-08-14T07:51:10.182Z,11504.00
2018-08-14T07:52:10.337Z,13856.00
2018-08-14T07:53:10.528Z,13880.00
2018-08-14T07:54:10.647Z,11752.00
2018-08-14T07:55:10.800Z,10916.00
2018-08-14T07:56:10.958Z,13024.00
2018-08-14T07:57:11.114Z,13284.00
2018-08-14T07:58:11.261Z,11576.00
2018-08-14T07:59:11.427Z,10348.00
2018-08-14T08:00:11.583Z,9624.00
2018-08-14T08:01:11.737Z,8480.00
2018-08-14T08:02:11.891Z,7836.00
2018-08-14T08:03:12.049Z,7504.00
2018-08-14T08:04:12.214Z,8800.00
2018-08-14T08:05:12.367Z,9948.00
2018-08-14T08:06:12.561Z,9488.00
2018-08-14T08:07:12.673Z,8820.00
2018-08-14T08:08:12.830Z,8948.00
2018-08-14T08:09:12.984Z,9644.00
2018-08-14T08:10:13.142Z,10312.00
2018-08-14T08:11:13.293Z,11112.00
2018-08-14T08:12:13.536Z,11408.00
2018-08-14T08:13:13.610Z,11352.00
2018-08-14T08:14:13.768Z,10704.00
2018-08-14T08:15:13.920Z,10932.00
2018-08-14T08:16:14.075Z,11488.00
2018-08-14T08:17:14.255Z,11604.00
2018-08-14T08:18:14.388Z,11704.00
2018-08-14T08:19:14.546Z,11832.00
2018-08-14T08:20:14.702Z,11564.00
2018-08-14T08:21:14.855Z,11008.00
2018-08-14T08:22:15.011Z,10344.00
2018-08-14T08:23:15.167Z,9812.00
2018-08-14T08:24:15.324Z,10024.00
2018-08-14T08:25:15.479Z,10164.00
2018-08-14T08:26:15.638Z,10368.00
2018-08-14T08:27:15.788Z,10672.00
2018-08-14T08:28:15.942Z,10924.00
2018-08-14T08:29:16.098Z,10900.00
2018-08-14T08:30:16.255Z,11224.00
2018-08-14T08:31:16.409Z,11440.00
2018-08-14T08:32:16.566Z,11592.00
2018-08-14T08:33:16.722Z,11764.00
2018-08-14T08:34:16.933Z,11960.00
2018-08-14T08:35:17.034Z,12104.00
2018-08-14T08:36:17.191Z,12256.00
2018-08-14T08:37:17.346Z,12260.00
2018-08-14T08:38:17.503Z,11892.00
2018-08-14T08:39:17.662Z,11688.00
2018-08-14T08:40:17.812Z,11908.00
2018-08-14T08:41:17.974Z,11956.00
2018-08-14T08:42:18.125Z,11852.00
2018-08-14T08:43:18.283Z,11624.00
2018-08-14T08:44:18.439Z,11068.00
2018-08-14T08:45:18.594Z,10316.00
2018-08-14T08:46:18.750Z,9628.00
2018-08-14T08:47:18.904Z,8580.00
2018-08-14T08:48:19.061Z,8532.00
2018-08-14T08:49:19.217Z,8952.00
2018-08-14T08:50:19.376Z,8924.00
2018-08-14T08:51:19.570Z,9168.00
2018-08-14T08:52:19.686Z,9728.00
2018-08-14T08:53:19.838Z,9068.00
2018-08-14T08:54:19.997Z,8484.00
2018-08-14T08:55:20.154Z,8076.00
2018-08-14T08:56:20.309Z,8040.00
2018-08-14T08:57:20.465Z,9004.00
2018-08-14T08:58:20.701Z,9860.00
2018-08-14T08:59:20.805Z,9692.00
2018-08-14T09:00:20.965Z,9144.00
2018-08-14T09:01:21.117Z,8816.00
2018-08-14T09:02:21.275Z,8572.00
2018-08-14T09:03:21.431Z,8444.00
2018-08-14T09:04:21.588Z,8476.00
2018-08-14T09:05:21.744Z,8376.00
2018-08-14T09:06:21.901Z,8120.00
2018-08-14T09:07:22.057Z,7680.00
2018-08-14T09:08:22.214Z,7472.00
2018-08-14T09:09:22.386Z,7216.00
2018-08-14T09:10:22.527Z,6904.00
2018-08-14T09:11:22.685Z,6616.00
2018-08-14T09:12:22.836Z,6376.00
2018-08-14T09:13:22.994Z,6360.00
2018-08-14T09:14:23.157Z,6496.00
2018-08-14T09:15:23.305Z,6744.00
2018-08-14T09:16:23.463Z,7176.00
2018-08-14T09:17:23.622Z,7792.00
2018-08-14T09:18:23.779Z,8588.00
2018-08-14T09:19:23.933Z,9524.00
2018-08-14T09:20:24.090Z,10344.00
2018-08-14T09:21:24.245Z,11096.00
2018-08-14T09:22:24.401Z,11456.00
2018-08-14T09:23:24.556Z,11468.00
2018-08-14T09:24:24.709Z,11172.00
2018-08-14T09:25:24.866Z,10648.00
2018-08-14T09:26:25.023Z,10040.00
2018-08-14T09:27:25.180Z,9576.00
2018-08-14T09:28:25.337Z,9152.00
2018-08-14T09:29:25.494Z,8692.00
2018-08-14T09:30:25.649Z,8116.00
2018-08-14T09:31:25.805Z,7684.00
2018-08-14T09:32:25.962Z,7476.00
2018-08-14T09:33:26.115Z,7352.00
2018-08-14T09:34:26.271Z,7364.00
2018-08-14T09:35:26.430Z,7560.00
2018-08-14T09:36:26.588Z,8036.00
2018-08-14T09:37:26.741Z,8192.00
2018-08-14T09:38:26.897Z,8124.00
2018-08-14T09:39:27.053Z,7732.00
2018-08-14T09:40:27.210Z,7360.00
2018-08-14T09:41:27.367Z,7116.00
2018-08-14T09:42:27.525Z,6884.00
2018-08-14T09:43:27.680Z,6752.00
2018-08-14T09:44:27.843Z,6712.00
2018-08-14T09:45:27.992Z,6884.00
2018-08-14T09:46:28.147Z,7344.00
2018-08-14T09:47:28.310Z,7952.00
2018-08-14T09:48:28.462Z,8700.00
2018-08-14T09:49:28.617Z,9340.00
2018-08-14T09:50:28.777Z,9816.00
2018-08-14T09:51:28.933Z,10496.00
2018-08-14T09:52:29.087Z,11508.00
2018-08-14T09:53:29.244Z,12320.00
2018-08-14T09:54:29.434Z,12128.00
2018-08-14T09:55:29.556Z,11096.00
2018-08-14T09:56:29.712Z,10256.00
2018-08-14T09:57:29.868Z,10132.00
2018-08-14T09:58:30.026Z,11004.00
2018-08-14T09:59:30.174Z,11848.00
2018-08-14T10:00:30.333Z,12396.00
2018-08-14T10:01:30.488Z,12268.00
2018-08-14T10:02:30.644Z,11264.00
2018-08-14T10:03:30.802Z,12104.00
2018-08-14T10:04:30.958Z,12996.00
2018-08-14T10:05:31.120Z,12980.00
2018-08-14T10:06:31.272Z,12736.00
2018-08-14T10:07:31.427Z,12404.00
2018-08-14T10:08:31.581Z,12268.00
2018-08-14T10:09:31.735Z,12424.00
2018-08-14T10:10:31.894Z,12864.00
2018-08-14T10:11:32.049Z,12800.00
2018-08-14T10:12:32.202Z,12648.00
2018-08-14T10:13:32.365Z,12984.00
2018-08-14T10:14:32.525Z,13500.00
2018-08-14T10:15:32.680Z,13516.00
2018-08-14T10:16:32.836Z,13016.00
2018-08-14T10:17:32.993Z,12608.00
2018-08-14T10:18:33.148Z,11996.00
2018-08-14T10:19:33.307Z,10768.00
2018-08-14T10:20:33.465Z,9552.00
2018-08-14T10:21:33.620Z,8016.00
2018-08-14T10:22:33.779Z,6832.00
2018-08-14T10:23:33.942Z,5756.00
2018-08-14T10:24:34.091Z,4568.00
2018-08-14T10:25:34.249Z,4080.00
2018-08-14T10:26:34.456Z,5024.00
2018-08-14T10:27:34.566Z,6668.00
2018-08-14T10:28:34.765Z,8752.00
2018-08-14T10:29:34.881Z,10880.00
2018-08-14T10:30:35.140Z,11944.00
2018-08-14T10:31:35.200Z,12552.00
2018-08-14T10:32:35.331Z,13336.00
2018-08-14T10:33:35.485Z,14476.00
2018-08-14T10:34:35.644Z,15008.00
2018-08-14T10:35:35.799Z,13560.00
2018-08-14T10:36:35.954Z,11896.00
2018-08-14T10:37:36.111Z,11192.00
2018-08-14T10:38:36.268Z,10304.00
2018-08-14T10:39:36.440Z,9836.00
2018-08-14T10:40:36.583Z,9856.00
2018-08-14T10:41:36.741Z,9320.00
2018-08-14T10:42:36.897Z,9812.00
2018-08-14T10:43:37.102Z,9860.00
2018-08-14T10:44:37.216Z,10032.00
2018-08-14T10:45:37.371Z,11180.00
2018-08-14T10:46:37.527Z,10012.00
2018-08-14T10:47:37.686Z,11748.00
2018-08-14T10:48:37.844Z,11812.00
2018-08-14T10:49:38.001Z,11088.00
2018-08-14T10:50:38.158Z,11704.00
2018-08-14T10:51:38.315Z,13600.00
2018-08-14T10:52:38.470Z,14516.00
2018-08-14T10:53:38.631Z,14276.00
2018-08-14T10:54:38.785Z,14584.00
2018-08-14T10:55:38.942Z,16288.00
2018-08-14T10:56:39.100Z,13736.00
2018-08-14T10:57:39.257Z,9624.00
2018-08-14T10:58:39.471Z,7936.00
2018-08-14T10:59:39.574Z,7436.00
2018-08-14T11:00:39.732Z,7144.00
2018-08-14T11:01:39.888Z,6296.00
2018-08-14T11:02:40.062Z,5720.00
2018-08-14T11:03:40.203Z,5744.00
2018-08-14T11:04:40.448Z,5428.00
2018-08-14T11:05:40.516Z,5288.00
2018-08-14T11:06:40.677Z,5908.00
2018-08-14T11:07:40.831Z,6812.00
2018-08-14T11:08:41.025Z,8184.00
2018-08-14T11:09:41.150Z,9076.00
2018-08-14T11:10:41.343Z,9256.00
2018-08-14T11:11:41.461Z,9504.00
2018-08-14T11:12:41.621Z,10064.00
2018-08-14T11:13:41.777Z,10224.00
2018-08-14T11:14:41.935Z,10236.00
2018-08-14T11:15:42.092Z,10540.00
2018-08-14T11:16:42.251Z,11188.00
2018-08-14T11:17:42.408Z,11528.00
2018-08-14T11:18:42.568Z,11416.00
2018-08-14T11:19:42.726Z,12100.00
2018-08-14T11:20:42.883Z,13132.00
2018-08-14T11:21:43.038Z,13712.00
2018-08-14T11:22:43.196Z,13744.00
2018-08-14T11:23:43.351Z,13368.00
2018-08-14T11:24:43.517Z,13144.00
2018-08-14T11:25:43.667Z,13188.00
2018-08-14T11:26:43.823Z,12780.00
2018-08-14T11:27:43.980Z,12320.00
2018-08-14T11:28:44.136Z,11656.00
2018-08-14T11:29:44.297Z,11308.00
2018-08-14T11:30:44.452Z,11244.00
2018-08-14T11:31:44.608Z,11780.00
2018-08-14T11:32:44.765Z,11852.00
2018-08-14T11:33:44.923Z,11496.00
2018-08-14T11:34:45.083Z,11060.00
2018-08-14T11:35:45.237Z,10348.00
2018-08-14T11:36:45.396Z,9672.00
2018-08-14T11:37:45.555Z,9264.00
2018-08-14T11:38:45.715Z,9060.00
2018-08-14T11:39:45.917Z,8960.00
2018-08-14T11:40:46.024Z,9100.00
2018-08-14T11:41:46.178Z,9360.00
2018-08-14T11:42:46.337Z,9608.00
2018-08-14T11:43:46.539Z,9820.00
2018-08-14T11:44:46.633Z,9744.00
2018-08-14T11:45:46.817Z,9840.00
2018-08-14T11:46:46.945Z,9584.00
2018-08-14T11:47:47.091Z,9372.00
2018-08-14T11:48:47.248Z,9204.00
2018-08-14T11:49:47.405Z,9280.00
2018-08-14T11:50:47.593Z,8896.00
2018-08-14T11:51:47.715Z,9252.00
2018-08-14T11:52:47.878Z,9756.00
2018-08-14T11:53:48.037Z,8096.00
2018-08-14T11:54:48.193Z,8736.00
2018-08-14T11:55:48.347Z,8360.00
2018-08-14T11:56:48.502Z,8104.00
2018-08-14T11:57:48.659Z,7948.00
2018-08-14T11:58:48.816Z,8540.00
2018-08-14T11:59:48.975Z,9276.00
2018-08-14T12:00:49.137Z,10280.00
2018-08-14T12:01:49.289Z,11040.00
2018-08-14T12:02:49.448Z,10856.00
2018-08-14T12:03:49.607Z,9840.00
2018-08-14T12:04:49.761Z,8392.00
2018-08-14T12:05:49.916Z,7180.00
2018-08-14T12:06:50.077Z,6560.00
2018-08-14T12:07:50.234Z,7048.00
2018-08-14T12:08:50.391Z,7636.00
2018-08-14T12:09:50.544Z,7888.00
2018-08-14T12:10:50.766Z,7428.00
2018-08-14T12:11:50.871Z,7088.00
2018-08-14T12:12:51.068Z,7116.00
2018-08-14T12:13:51.183Z,7460.00
2018-08-14T12:14:51.342Z,8112.00
2018-08-14T12:15:51.503Z,8908.00
2018-08-14T12:16:51.660Z,9804.00
2018-08-14T12:17:51.818Z,10384.00
2018-08-14T12:18:51.974Z,10608.00
2018-08-14T12:19:52.130Z,10484.00
2018-08-14T12:20:52.289Z,10168.00
2018-08-14T12:21:52.446Z,10468.00
2018-08-14T12:22:52.601Z,12508.00
2018-08-14T12:23:52.759Z,13096.00
2018-08-14T12:24:52.917Z,11312.00
2018-08-14T12:25:53.077Z,11596.00
2018-08-14T12:26:53.234Z,11552.00